createdAt,value
2023-03-18T00:00:19.276Z,13.80
2023-03-18T00:02:46.718Z,13.80
2023-03-18T00:05:14.616Z,13.80
2023-03-18T00:07:41.848Z,13.70
2023-03-18T00:10:12.778Z,13.70
2023-03-18T00:12:40.610Z,13.70
2023-03-18T00:15:08.622Z,13.70
2023-03-18T00:17:35.878Z,13.70
2023-03-18T00:20:06.198Z,13.70
2023-03-18T00:22:37.538Z,13.70
2023-03-18T00:25:05.882Z,13.70
2023-03-18T00:27:33.945Z,13.70
2023-03-18T00:30:01.026Z,13.70
2023-03-18T00:32:28.322Z,13.80
2023-03-18T00:34:56.670Z,13.80
2023-03-18T00:37:35.852Z,13.80
2023-03-18T00:40:07.045Z,13.80
2023-03-18T00:42:39.249Z,13.80
2023-03-18T00:45:07.799Z,13.80
2023-03-18T00:47:36.081Z,13.80
2023-03-18T00:50:03.507Z,13.80
2023-03-18T00:52:32.302Z,13.80
2023-03-18T00:55:00.267Z,13.80
2023-03-18T00:57:28.605Z,13.80
2023-03-18T00:59:58.374Z,13.70
2023-03-18T01:02:25.682Z,13.70
2023-03-18T01:04:53.476Z,13.70
2023-03-18T01:07:20.416Z,13.70
2023-03-18T01:09:47.391Z,13.70
2023-03-18T01:12:14.336Z,13.60
2023-03-18T01:14:41.696Z,13.70
2023-03-18T01:17:09.160Z,13.70
2023-03-18T01:30:40.131Z,13.60
2023-03-18T01:33:10.305Z,13.60
2023-03-18T01:35:37.593Z,13.60
2023-03-18T01:38:05.731Z,13.50
2023-03-18T01:40:34.253Z,13.50
2023-03-18T01:43:16.336Z,13.50
2023-03-18T01:45:54.090Z,13.50
2023-03-18T01:48:23.468Z,13.50
2023-03-18T01:50:53.313Z,13.30
2023-03-18T01:53:21.529Z,13.30
2023-03-18T01:55:49.972Z,13.30
2023-03-18T01:58:19.826Z,13.20
2023-03-18T02:00:51.875Z,13.20
2023-03-18T02:03:29.552Z,13.20
2023-03-18T02:05:56.554Z,13.20
2023-03-18T02:08:23.588Z,13.20
2023-03-18T02:10:50.768Z,13.30
2023-03-18T02:13:18.696Z,13.30
2023-03-18T02:15:57.228Z,13.30
2023-03-18T02:18:27.557Z,13.30
2023-03-18T02:21:07.577Z,13.30
2023-03-18T02:23:50.107Z,13.30
2023-03-18T02:26:28.895Z,13.40
2023-03-18T02:28:58.586Z,13.40
2023-03-18T02:31:26.243Z,13.40
2023-03-18T02:33:53.840Z,13.40
2023-03-18T02:36:24.776Z,13.40
2023-03-18T02:38:51.692Z,13.40
2023-03-18T02:41:20.930Z,13.30
2023-03-18T02:43:48.154Z,13.30
2023-03-18T02:46:15.020Z,13.20
2023-03-18T02:48:44.070Z,13.30
2023-03-18T02:51:11.905Z,13.30
2023-03-18T02:53:39.497Z,13.30
2023-03-18T02:56:07.201Z,13.30
2023-03-18T02:58:34.527Z,13.30
2023-03-18T03:01:01.514Z,13.30
2023-03-18T03:03:29.368Z,13.30
2023-03-18T03:05:56.629Z,13.30
2023-03-18T03:08:24.509Z,13.30
2023-03-18T03:10:52.659Z,13.20
2023-03-18T03:13:20.974Z,13.20
2023-03-18T03:15:48.779Z,13.10
2023-03-18T03:18:15.830Z,13.10
2023-03-18T03:20:43.996Z,13.10
2023-03-18T03:23:12.644Z,13.10
2023-03-18T03:25:40.302Z,13.00
2023-03-18T03:28:07.444Z,13.00
2023-03-18T03:30:35.255Z,13.00
2023-03-18T03:33:02.864Z,12.90
2023-03-18T03:35:29.949Z,12.90
2023-03-18T03:37:57.104Z,12.90
2023-03-18T03:40:24.146Z,12.90
2023-03-18T03:42:51.879Z,12.90
2023-03-18T03:45:19.433Z,12.90
2023-03-18T03:47:47.272Z,12.90
2023-03-18T03:50:14.894Z,12.90
2023-03-18T03:52:42.463Z,12.90
2023-03-18T03:55:10.457Z,12.90
2023-03-18T03:57:37.504Z,12.90
2023-03-18T04:00:06.003Z,13.00
2023-03-18T04:02:33.473Z,13.00
2023-03-18T04:05:00.729Z,13.00
2023-03-18T04:07:28.099Z,13.00
2023-03-18T04:09:56.180Z,13.00
2023-03-18T04:12:23.206Z,13.00
2023-03-18T04:14:51.834Z,12.90
2023-03-18T04:17:18.798Z,13.00
2023-03-18T04:19:45.809Z,12.90
2023-03-18T04:22:12.704Z,12.90
2023-03-18T04:24:39.623Z,12.90
2023-03-18T04:27:07.065Z,12.90
2023-03-18T04:29:33.994Z,12.90
2023-03-18T04:32:00.944Z,12.90
2023-03-18T04:34:28.098Z,12.90
2023-03-18T04:36:55.839Z,12.90
2023-03-18T04:39:23.174Z,12.90
2023-03-18T04:41:51.128Z,12.80
2023-03-18T04:44:17.979Z,12.70
2023-03-18T04:46:48.896Z,12.70
2023-03-18T04:49:16.101Z,12.70
2023-03-18T04:51:43.017Z,12.60
2023-03-18T04:54:09.889Z,12.50
2023-03-18T04:56:36.917Z,12.40
2023-03-18T04:59:03.809Z,12.30
2023-03-18T05:01:30.672Z,12.20
2023-03-18T05:03:57.736Z,12.20
2023-03-18T05:06:27.032Z,12.20
2023-03-18T05:08:54.156Z,12.10
2023-03-18T05:11:21.594Z,12.00
2023-03-18T05:13:48.605Z,11.90
2023-03-18T05:16:15.590Z,11.90
2023-03-18T05:18:42.743Z,11.90
2023-03-18T05:21:10.362Z,11.80
2023-03-18T05:23:38.034Z,11.80
2023-03-18T05:26:06.876Z,11.80
2023-03-18T05:28:34.350Z,11.80
2023-03-18T05:31:01.480Z,11.70
2023-03-18T05:33:28.676Z,11.60
2023-03-18T05:35:55.786Z,11.60
2023-03-18T05:38:22.747Z,11.50
2023-03-18T05:40:50.128Z,11.50
2023-03-18T05:43:17.471Z,11.50
2023-03-18T05:45:45.843Z,11.40
2023-03-18T05:48:12.816Z,11.40
2023-03-18T05:50:42.070Z,11.40
2023-03-18T05:53:09.633Z,11.30
2023-03-18T05:55:36.577Z,11.30
2023-03-18T05:58:04.438Z,11.30
2023-03-18T06:00:31.351Z,11.20
2023-03-18T06:02:59.670Z,11.20
2023-03-18T06:05:26.740Z,11.10
2023-03-18T06:07:55.120Z,11.10
2023-03-18T06:10:22.968Z,11.00
2023-03-18T06:12:50.286Z,11.00
2023-03-18T06:15:17.518Z,11.00
2023-03-18T06:17:44.644Z,11.00
2023-03-18T06:20:16.231Z,11.00
2023-03-18T06:22:43.937Z,11.00
2023-03-18T06:25:11.112Z,11.00
2023-03-18T06:27:38.209Z,11.00
2023-03-18T06:30:05.942Z,11.00
2023-03-18T06:32:34.106Z,11.10
2023-03-18T06:35:01.314Z,11.10
2023-03-18T06:37:28.441Z,11.20
2023-03-18T06:39:55.492Z,11.30
2023-03-18T06:42:22.390Z,11.30
2023-03-18T06:44:50.778Z,11.40
2023-03-18T06:47:18.511Z,11.40
2023-03-18T06:49:45.930Z,11.50
2023-03-18T06:52:13.804Z,11.50
2023-03-18T06:54:41.250Z,11.50
2023-03-18T06:57:08.737Z,11.60
2023-03-18T06:59:35.850Z,11.60
2023-03-18T07:02:03.268Z,11.60
2023-03-18T07:04:31.144Z,11.70
2023-03-18T07:06:58.149Z,11.70
2023-03-18T07:09:25.209Z,11.80
2023-03-18T07:11:53.752Z,11.80
2023-03-18T07:14:23.733Z,11.90
2023-03-18T07:16:50.709Z,12.00
2023-03-18T07:19:18.896Z,12.00
2023-03-18T07:21:46.589Z,12.10
2023-03-18T07:24:14.418Z,12.10
2023-03-18T07:26:41.655Z,12.20
2023-03-18T07:29:08.698Z,12.30
2023-03-18T07:31:35.893Z,12.50
2023-03-18T07:34:02.854Z,12.50
2023-03-18T07:36:30.176Z,12.70
2023-03-18T07:38:57.394Z,12.80
2023-03-18T07:41:24.260Z,12.90
2023-03-18T07:43:51.230Z,13.00
2023-03-18T07:46:18.181Z,13.10
2023-03-18T07:48:45.116Z,13.30
2023-03-18T07:51:12.535Z,13.40
2023-03-18T07:53:39.996Z,13.50
2023-03-18T07:56:08.225Z,13.60
2023-03-18T07:58:35.232Z,13.70
2023-03-18T08:01:02.368Z,13.80
2023-03-18T08:03:29.405Z,13.90
2023-03-18T08:05:57.689Z,14.00
2023-03-18T08:08:25.043Z,14.10
2023-03-18T08:10:54.588Z,14.20
2023-03-18T08:13:21.492Z,14.30
2023-03-18T08:15:48.526Z,14.40
2023-03-18T08:18:15.469Z,14.40
2023-03-18T08:20:42.629Z,14.40
2023-03-18T08:23:09.535Z,14.50
2023-03-18T08:25:38.105Z,14.50
2023-03-18T08:28:08.002Z,14.50
2023-03-18T08:30:35.435Z,14.50
2023-03-18T08:33:03.194Z,14.50
2023-03-18T08:35:31.086Z,14.40
2023-03-18T08:37:58.245Z,14.40
2023-03-18T08:40:26.758Z,14.50
2023-03-18T08:42:54.248Z,14.60
2023-03-18T08:45:21.384Z,14.70
2023-03-18T08:47:48.635Z,14.70
2023-03-18T08:50:15.695Z,14.80
2023-03-18T08:52:42.629Z,14.90
2023-03-18T08:55:10.002Z,14.90
2023-03-18T08:57:37.587Z,14.90
2023-03-18T09:00:05.764Z,15.00
2023-03-18T09:02:33.922Z,15.10
2023-03-18T09:05:01.453Z,15.30
2023-03-18T09:07:29.039Z,15.40
2023-03-18T09:09:55.967Z,15.50
2023-03-18T09:12:22.833Z,15.50
2023-03-18T09:14:49.737Z,15.60
2023-03-18T09:17:16.920Z,15.70
2023-03-18T09:19:43.830Z,15.80
2023-03-18T09:22:11.501Z,15.80
2023-03-18T09:24:38.351Z,15.90
2023-03-18T09:27:05.274Z,15.90
2023-03-18T09:29:33.096Z,16.00
2023-03-18T09:32:00.779Z,16.10
2023-03-18T09:34:27.651Z,16.10
2023-03-18T09:36:54.607Z,16.20
2023-03-18T09:39:22.202Z,16.20
2023-03-18T09:41:49.083Z,16.30
2023-03-18T09:44:16.202Z,16.30
2023-03-18T09:46:48.493Z,16.30
2023-03-18T09:49:34.851Z,16.30
2023-03-18T09:52:17.282Z,16.30
2023-03-18T09:54:44.904Z,16.30
2023-03-18T09:57:17.938Z,16.40
2023-03-18T09:59:46.903Z,16.30
2023-03-18T10:02:31.159Z,16.30
2023-03-18T10:05:00.622Z,16.30
2023-03-18T10:07:33.872Z,16.30
2023-03-18T10:10:02.729Z,16.30
2023-03-18T10:12:37.059Z,16.30
2023-03-18T10:15:12.397Z,16.30
2023-03-18T10:17:51.802Z,16.20
2023-03-18T10:20:27.637Z,16.20
2023-03-18T10:22:55.035Z,16.20
2023-03-18T10:25:28.131Z,16.30
2023-03-18T10:28:14.079Z,16.20
2023-03-18T10:30:44.571Z,16.10
2023-03-18T10:33:30.034Z,16.10
2023-03-18T10:36:20.803Z,16.10
2023-03-18T10:38:49.004Z,16.00
2023-03-18T10:41:15.834Z,16.00
2023-03-18T10:43:43.359Z,15.90
2023-03-18T10:46:12.138Z,15.90
2023-03-18T10:48:39.031Z,15.80
2023-03-18T10:51:10.011Z,15.80
2023-03-18T10:53:46.921Z,15.70
2023-03-18T10:56:14.838Z,15.70
2023-03-18T10:58:42.785Z,15.70
2023-03-18T11:01:11.937Z,15.60
2023-03-18T11:03:44.415Z,15.60
2023-03-18T11:06:17.401Z,15.60
2023-03-18T11:08:46.945Z,15.60
2023-03-18T11:11:22.755Z,15.50
2023-03-18T11:13:50.934Z,15.50
2023-03-18T11:16:22.693Z,15.50
2023-03-18T11:18:51.534Z,15.40
2023-03-18T11:21:19.127Z,15.40
2023-03-18T11:23:56.672Z,15.40
2023-03-18T11:26:30.478Z,15.40
2023-03-18T11:28:58.512Z,15.40
2023-03-18T11:31:25.554Z,15.40
2023-03-18T11:33:57.154Z,15.30
2023-03-18T11:36:24.869Z,15.30
2023-03-18T11:38:59.139Z,15.30
2023-03-18T11:41:27.909Z,15.30
2023-03-18T11:44:02.179Z,15.30
2023-03-18T11:46:34.078Z,15.30
2023-03-18T11:49:01.057Z,15.30
2023-03-18T11:51:46.452Z,15.30
2023-03-18T11:54:22.360Z,15.30
2023-03-18T11:56:58.968Z,15.30
2023-03-18T11:59:35.094Z,15.30
2023-03-18T12:02:11.284Z,15.30
2023-03-18T12:04:47.370Z,15.30
2023-03-18T12:07:23.944Z,15.30
2023-03-18T12:09:50.844Z,15.40
2023-03-18T12:12:19.105Z,15.40
2023-03-18T12:15:04.179Z,15.40
2023-03-18T12:17:49.654Z,15.50
2023-03-18T12:20:19.315Z,15.70
2023-03-18T12:22:49.795Z,15.90
2023-03-18T12:25:23.765Z,16.10
2023-03-18T12:28:03.706Z,16.20
2023-03-18T12:31:00.093Z,16.20
2023-03-18T12:33:32.712Z,16.30
2023-03-18T12:36:08.895Z,16.60
2023-03-18T12:39:02.817Z,16.70
2023-03-18T12:41:39.938Z,16.80
2023-03-18T12:44:16.021Z,16.90
2023-03-18T12:46:45.682Z,17.00
2023-03-18T12:49:16.391Z,17.10
2023-03-18T12:52:03.848Z,17.40
2023-03-18T12:54:33.268Z,17.50
2023-03-18T12:57:03.850Z,17.60
2023-03-18T12:59:37.701Z,17.70
2023-03-18T13:02:14.001Z,17.80
2023-03-18T13:04:45.867Z,17.80
2023-03-18T13:07:17.583Z,17.80
2023-03-18T13:09:49.289Z,17.90
2023-03-18T13:12:16.193Z,17.80
2023-03-18T13:14:52.150Z,17.80
2023-03-18T13:17:51.637Z,17.80
2023-03-18T13:20:23.875Z,18.00
2023-03-18T13:23:05.979Z,18.30
2023-03-18T13:25:51.698Z,18.40
2023-03-18T13:28:30.774Z,18.40
2023-03-18T13:31:00.974Z,18.40
2023-03-18T13:33:47.692Z,18.40
2023-03-18T13:36:23.742Z,18.40
2023-03-18T13:38:59.513Z,18.30
2023-03-18T13:41:32.718Z,18.20
2023-03-18T13:44:06.773Z,18.40
2023-03-18T13:46:33.878Z,18.60
2023-03-18T13:49:02.030Z,18.70
2023-03-18T13:51:29.027Z,18.80
2023-03-18T13:54:01.720Z,19.10
2023-03-18T13:56:33.319Z,19.20
2023-03-18T13:59:05.992Z,19.40
2023-03-18T14:01:34.079Z,19.60
2023-03-18T14:04:02.129Z,19.70
2023-03-18T14:06:35.136Z,19.70
2023-03-18T14:09:21.979Z,19.80
2023-03-18T14:11:52.004Z,19.90
2023-03-18T14:14:37.370Z,20.10
2023-03-18T14:17:04.737Z,20.00
2023-03-18T14:19:34.797Z,20.00
2023-03-18T14:22:13.931Z,20.10
2023-03-18T14:24:41.724Z,20.20
2023-03-18T14:27:10.699Z,20.30
2023-03-18T14:29:37.581Z,20.40
2023-03-18T14:32:24.419Z,20.30
2023-03-18T14:34:51.578Z,20.40
2023-03-18T14:37:20.121Z,20.40
2023-03-18T14:39:49.047Z,20.40
2023-03-18T14:42:25.281Z,20.50
2023-03-18T14:44:56.298Z,20.60
2023-03-18T14:47:38.685Z,20.70
2023-03-18T14:50:13.205Z,20.70
2023-03-18T14:52:42.138Z,20.60
2023-03-18T14:55:17.473Z,20.60
2023-03-18T14:57:44.664Z,20.70
2023-03-18T15:00:15.385Z,20.80
2023-03-18T15:02:44.357Z,20.80
2023-03-18T15:05:16.369Z,20.80
2023-03-18T15:07:43.390Z,21.00
2023-03-18T15:10:12.960Z,21.20
2023-03-18T15:12:40.252Z,21.30
2023-03-18T15:15:07.717Z,21.50
2023-03-18T15:17:34.623Z,21.50
2023-03-18T15:20:02.019Z,21.60
2023-03-18T15:22:30.806Z,21.60
2023-03-18T15:25:05.547Z,21.70
2023-03-18T15:27:34.213Z,21.60
2023-03-18T15:30:02.491Z,21.70
2023-03-18T15:32:45.604Z,21.60
2023-03-18T15:35:13.279Z,21.60
2023-03-18T15:37:42.169Z,21.40
2023-03-18T15:40:38.683Z,21.20
2023-03-18T15:43:17.040Z,21.10
2023-03-18T15:45:52.604Z,20.90
2023-03-18T15:48:24.209Z,20.80
2023-03-18T15:50:55.651Z,20.70
2023-03-18T15:53:23.890Z,20.60
2023-03-18T15:55:53.138Z,20.60
2023-03-18T15:58:46.483Z,20.60
2023-03-18T16:01:16.627Z,20.60
2023-03-18T16:03:44.693Z,20.40
2023-03-18T16:06:12.008Z,20.30
2023-03-18T16:08:39.338Z,20.20
2023-03-18T16:11:06.641Z,20.10
2023-03-18T16:13:35.135Z,20.00
2023-03-18T16:16:02.705Z,19.80
2023-03-18T16:18:29.571Z,19.60
2023-03-18T16:20:57.486Z,19.30
2023-03-18T16:23:24.515Z,19.20
2023-03-18T16:25:52.644Z,19.00
2023-03-18T16:28:24.148Z,19.00
2023-03-18T16:30:53.542Z,18.90
2023-03-18T16:33:20.817Z,18.90
2023-03-18T16:36:06.462Z,18.70
2023-03-18T16:38:34.999Z,18.60
2023-03-18T16:41:01.955Z,18.50
2023-03-18T16:43:30.569Z,18.50
2023-03-18T16:45:58.942Z,18.50
2023-03-18T16:48:26.559Z,18.40
2023-03-18T16:50:53.535Z,18.30
2023-03-18T16:53:22.266Z,18.30
2023-03-18T16:55:51.159Z,18.20
2023-03-18T16:58:20.546Z,18.10
2023-03-18T17:00:49.949Z,18.00
2023-03-18T17:03:18.324Z,17.90
2023-03-18T17:05:47.425Z,17.80
2023-03-18T17:08:14.392Z,17.70
2023-03-18T17:10:42.660Z,17.70
2023-03-18T17:13:17.049Z,17.60
2023-03-18T17:15:45.026Z,17.50
2023-03-18T17:18:18.274Z,17.40
2023-03-18T17:20:46.016Z,17.40
2023-03-18T17:23:20.592Z,17.30
2023-03-18T17:25:48.812Z,17.20
2023-03-18T17:28:18.702Z,17.10
2023-03-18T17:30:45.647Z,17.00
2023-03-18T17:33:23.315Z,17.00
2023-03-18T17:35:50.896Z,17.00
2023-03-18T17:38:18.835Z,16.90
2023-03-18T17:40:47.804Z,16.90
2023-03-18T17:43:34.159Z,16.80
2023-03-18T17:46:01.715Z,16.70
2023-03-18T17:48:29.735Z,16.70
2023-03-18T17:51:01.086Z,16.60
2023-03-18T17:53:32.162Z,16.50
2023-03-18T17:55:59.292Z,16.50
2023-03-18T17:58:28.708Z,16.40
2023-03-18T18:01:02.576Z,16.40
2023-03-18T18:03:29.994Z,16.40
2023-03-18T18:05:58.900Z,16.30
2023-03-18T18:14:01.711Z,16.50
2023-03-18T18:16:28.727Z,16.30
2023-03-18T18:18:55.657Z,16.10
2023-03-18T18:21:27.980Z,15.80
2023-03-18T18:23:54.993Z,15.60
2023-03-18T18:26:22.254Z,15.50
2023-03-18T18:28:51.262Z,15.40
2023-03-18T18:31:19.660Z,15.30
2023-03-18T18:33:47.223Z,15.20
2023-03-18T18:36:14.753Z,15.10
2023-03-18T18:38:41.731Z,15.00
2023-03-18T18:41:08.736Z,15.00
2023-03-18T18:43:36.310Z,15.00
2023-03-18T18:46:03.759Z,14.90
2023-03-18T18:48:30.742Z,14.80
2023-03-18T18:50:58.602Z,14.80
2023-03-18T18:53:27.242Z,14.70
2023-03-18T18:55:55.520Z,14.70
2023-03-18T18:58:26.866Z,14.70
2023-03-18T19:00:53.826Z,14.60
2023-03-18T19:03:23.265Z,14.60
2023-03-18T19:05:51.426Z,14.50
2023-03-18T19:08:25.240Z,14.50
2023-03-18T19:10:53.319Z,14.50
2023-03-18T19:13:20.943Z,14.40
2023-03-18T19:15:49.008Z,14.30
2023-03-18T19:18:21.051Z,14.20
2023-03-18T19:20:48.887Z,14.10
2023-03-18T19:23:29.801Z,14.00
2023-03-18T19:25:58.006Z,14.00
2023-03-18T19:28:58.993Z,13.90
2023-03-18T19:31:27.562Z,13.90
2023-03-18T19:33:54.599Z,13.90
2023-03-18T19:36:26.537Z,13.90
2023-03-18T19:38:54.689Z,13.90
2023-03-18T19:41:22.220Z,13.90
2023-03-18T19:43:49.816Z,13.90
2023-03-18T19:46:28.077Z,13.90
2023-03-18T19:48:55.142Z,13.90
2023-03-18T19:51:22.063Z,13.80
2023-03-18T19:53:49.112Z,13.70
2023-03-18T19:56:26.200Z,13.70
2023-03-18T19:58:54.500Z,13.70
2023-03-18T20:01:22.310Z,13.60
2023-03-18T20:03:50.133Z,13.60
2023-03-18T20:06:17.029Z,13.60
2023-03-18T20:08:44.392Z,13.60
2023-03-18T20:11:12.533Z,13.50
2023-03-18T20:13:39.461Z,13.50
2023-03-18T20:16:07.447Z,13.60
2023-03-18T20:18:34.378Z,13.60
2023-03-18T20:21:01.358Z,13.60
2023-03-18T20:23:30.246Z,13.60
2023-03-18T20:25:57.300Z,13.50
2023-03-18T20:28:25.422Z,13.50
2023-03-18T20:30:53.191Z,13.50
2023-03-18T20:33:20.896Z,13.50
2023-03-18T20:35:48.679Z,13.50
2023-03-18T20:38:16.495Z,13.50
2023-03-18T20:40:44.444Z,13.40
2023-03-18T20:43:16.347Z,13.40
2023-03-18T20:45:43.671Z,13.40
2023-03-18T20:48:10.793Z,13.40
2023-03-18T20:50:37.712Z,13.40
2023-03-18T20:53:06.237Z,13.40
2023-03-18T20:55:35.021Z,13.40
2023-03-18T20:58:02.723Z,13.40
2023-03-18T21:00:31.275Z,13.50
2023-03-18T21:02:58.725Z,13.50
2023-03-18T21:05:28.879Z,13.60
2023-03-18T21:07:56.142Z,13.60
2023-03-18T21:10:24.709Z,13.60
2023-03-18T21:12:52.326Z,13.60
2023-03-18T21:15:19.283Z,13.50
2023-03-18T21:17:46.573Z,13.50
2023-03-18T21:20:22.877Z,13.50
2023-03-18T21:22:50.706Z,13.50
2023-03-18T21:25:22.220Z,13.50
2023-03-18T21:27:49.890Z,13.50
2023-03-18T21:30:17.678Z,13.50
2023-03-18T21:32:45.352Z,13.50
2023-03-18T21:35:18.383Z,13.50
2023-03-18T21:37:45.378Z,13.50
2023-03-18T21:40:16.358Z,13.50
2023-03-18T21:42:43.966Z,13.50
2023-03-18T21:45:12.013Z,13.50
2023-03-18T21:47:39.029Z,13.40
2023-03-18T21:50:07.056Z,13.50
2023-03-18T21:52:39.679Z,13.50
2023-03-18T21:55:07.459Z,13.40
2023-03-18T21:57:34.586Z,13.30
2023-03-18T22:00:01.557Z,13.20
2023-03-18T22:02:30.261Z,13.20
2023-03-18T22:04:58.405Z,13.20
2023-03-18T22:07:25.786Z,13.20
2023-03-18T22:09:52.938Z,13.30
2023-03-18T22:12:22.611Z,13.30
2023-03-18T22:14:49.861Z,13.30
2023-03-18T22:17:19.899Z,13.30
2023-03-18T22:19:46.961Z,13.20
2023-03-18T22:22:15.797Z,13.20
2023-03-18T22:24:43.033Z,13.10
2023-03-18T22:27:23.689Z,13.10
2023-03-18T22:29:51.494Z,13.00
2023-03-18T22:32:37.536Z,13.00
2023-03-18T22:35:07.035Z,13.00
2023-03-18T22:37:34.046Z,13.00
2023-03-18T22:40:01.762Z,13.00
2023-03-18T22:42:28.827Z,13.00
2023-03-18T22:44:55.891Z,13.00
2023-03-18T22:47:23.998Z,13.00
2023-03-18T22:49:51.322Z,13.00
2023-03-18T22:52:21.313Z,12.90
2023-03-18T22:54:49.608Z,12.90
2023-03-18T22:57:21.604Z,12.90
2023-03-18T22:59:48.739Z,12.90
2023-03-18T23:02:18.542Z,12.90
2023-03-18T23:04:46.974Z,12.90
2023-03-18T23:07:26.994Z,13.00
2023-03-18T23:09:57.104Z,13.00
2023-03-18T23:12:25.908Z,13.00
2023-03-18T23:14:53.466Z,13.00
2023-03-18T23:17:22.079Z,13.00
2023-03-18T23:19:51.066Z,13.00
2023-03-18T23:22:28.394Z,13.00
2023-03-18T23:24:55.719Z,13.00
2023-03-18T23:27:23.615Z,13.00
2023-03-18T23:29:50.778Z,13.00
2023-03-18T23:32:18.788Z,13.00
2023-03-18T23:34:47.106Z,13.10
2023-03-18T23:37:14.484Z,13.00
2023-03-18T23:39:46.464Z,13.00
2023-03-18T23:42:18.138Z,13.00
2023-03-18T23:44:45.366Z,13.00
2023-03-18T23:47:12.852Z,13.00
2023-03-18T23:49:39.956Z,13.00
2023-03-18T23:52:14.264Z,13.00
2023-03-18T23:54:41.316Z,13.00
2023-03-18T23:57:09.424Z,13.00
2023-03-18T23:59:36.953Z,12.90
